EST,Max TemperatureF,Mean TemperatureF,Min TemperatureF,Max Dew PointF,MeanDew PointF,Min DewpointF,Max Humidity, Mean Humidity, Min Humidity, Max Sea Level PressureIn, Mean Sea Level PressureIn, Min Sea Level PressureIn, Max VisibilityMiles, Mean VisibilityMiles, Min VisibilityMiles, Max Wind SpeedMPH, Mean Wind SpeedMPH, Max Gust SpeedMPH,PrecipitationIn, CloudCover, Events, WindDirDegrees
2013-1-1,69,58,48,57,50,45,93,75,56,30.20,30.06,29.94,10,10,7,10,3,,0.00,6,Thunderstorm,205
2013-1-2,64,58,51,59,54,48,100,90,77,30.15,30.02,29.89,10,9,2,12,2,16,0.01,6,Rain,346
2013-1-3,51,46,41,48,46,39,100,91,76,30.29,30.18,30.10,10,9,2,6,0,,0.00,6,Rain,237
2013-1-4,53,43,33,43,37,34,100,87,51,30.37,30.31,30.27,10,6,0,8,0,,0.00,3,Fog,225
2013-1-5,55,42,28,43,33,27,100,70,38,30.42,30.34,30.30,10,10,10,6,1,,0.00,0,,24
2013-1-6,55,50,44,45,42,37,93,77,54,30.31,30.20,30.12,10,10,8,7,1,,0.00,6,Rain,249
2013-1-7,55,44,32,37,34,32,100,72,41,30.40,30.34,30.23,10,10,10,14,3,20,0.00,0,,49
2013-1-8,60,46,33,46,40,32,93,70,54,30.41,30.36,30.32,10,10,10,9,4,,0.00,4,,32
2013-1-9,71,58,44,59,51,43,100,80,60,30.42,30.38,30.35,10,10,2,7,2,,0.00,1,,26
2013-1-10,73,60,48,59,55,48,100,81,50,30.46,30.40,30.35,10,8,0,14,3,18,0.00,4,Fog,88
2013-1-11,75,67,59,64,61,59,100,91,61,30.33,30.24,30.17,10,5,0,9,4,,0.00,6,Fog-Rain,122
2013-1-12,80,68,55,64,58,55,100,81,45,30.21,30.16,30.11,10,7,0,9,1,,0.00,2,Fog,231
2013-1-13,77,65,53,64,60,54,100,84,57,30.18,30.13,30.09,10,8,0,10,1,16,0.00,2,Fog,201
2013-1-14,78,68,57,63,60,57,100,78,54,30.19,30.14,30.10,10,9,1,14,4,20,0.00,2,,200
2013-1-15,78,66,55,61,59,55,100,76,47,30.16,30.10,30.03,10,9,0,14,2,20,0.00,2,Fog,181
2013-1-16,82,71,60,61,59,55,100,73,42,30.05,29.99,29.94,10,10,10,17,3,24,0.00,4,,213
2013-1-17,75,60,44,63,54,37,100,81,61,30.09,29.92,29.73,10,9,2,23,6,38,0.09,6,,218
2013-1-18,55,44,32,39,30,19,100,65,25,30.51,30.41,30.16,10,10,9,17,7,23,0.00,0,,17
2013-1-19,60,46,32,41,34,27,87,69,38,30.51,30.38,30.24,10,10,5,4,0,,0.00,1,,30
2013-1-20,68,52,35,43,36,30,100,66,24,30.23,30.15,30.07,10,10,9,13,2,,0.00,0,,255
2013-1-21,66,49,32,37,32,28,100,61,24,30.12,30.06,29.99,10,9,1,13,2,20,0.00,1,,264
2013-1-22,53,43,33,28,21,18,70,44,26,30.30,30.20,30.09,10,10,10,13,4,21,0.00,0,,270
2013-1-23,55,42,28,34,25,18,80,53,32,30.39,30.29,30.18,10,10,8,13,2,20,0.00,0,,250
2013-1-24,66,50,35,45,32,12,82,50,22,30.46,30.22,30.11,10,10,10,18,9,25,0.00,1,,278
2013-1-25,39,34,30,28,18,10,65,51,38,30.48,30.32,30.16,10,10,9,8,3,,0.00,5,,52
2013-1-26,62,48,35,37,33,28,87,63,34,30.33,30.20,30.13,10,9,2,7,0,,0.00,2,,347
2013-1-27,53,42,32,32,30,27,93,63,38,30.52,30.45,30.33,10,10,9,13,3,21,0.00,1,,61
2013-1-28,64,52,41,48,41,32,100,75,55,30.47,30.38,30.30,10,9,5,7,2,,0.00,5,,36
2013-1-29,77,59,41,63,54,39,100,83,53,30.30,30.20,30.10,10,7,0,9,2,,0.00,3,Fog,165
2013-1-30,82,66,51,64,61,48,94,78,45,30.09,29.85,29.59,10,10,1,21,10,33,0.28,6,Rain,181
2013-1-31,55,46,35,48,29,21,88,53,26,30.19,30.01,29.74,10,10,10,20,10,36,0.01,1,,264